createdAt,value
2019-05-23T00:00:13.690Z,1012.25
2019-05-23T00:00:54.246Z,1012.19
2019-05-23T00:01:34.895Z,1012.2
2019-05-23T00:02:15.569Z,1012.18
2019-05-23T00:02:56.038Z,1012.25
2019-05-23T00:03:36.612Z,1012.23
2019-05-23T00:04:17.234Z,1012.24
2019-05-23T00:04:57.801Z,1012.25
2019-05-23T00:05:38.367Z,1012.28
2019-05-23T00:06:18.934Z,1012.22
2019-05-23T00:06:59.477Z,1012.25
2019-05-23T00:07:40.016Z,1012.28
2019-05-23T00:08:20.618Z,1012.26
2019-05-23T00:09:01.200Z,1012.28
2019-05-23T00:09:41.750Z,1012.31
2019-05-23T00:10:22.334Z,1012.31
2019-05-23T00:11:02.879Z,1012.25
2019-05-23T00:11:43.425Z,1012.22
2019-05-23T00:12:23.976Z,1012.23
2019-05-23T00:13:04.578Z,1012.24
2019-05-23T00:13:45.144Z,1012.28
2019-05-23T00:14:25.729Z,1012.29
2019-05-23T00:15:06.300Z,1012.26
2019-05-23T00:15:46.862Z,1012.3
2019-05-23T00:16:27.427Z,1012.28
2019-05-23T00:17:08.003Z,1012.24
2019-05-23T00:17:48.593Z,1012.28
2019-05-23T00:18:29.162Z,1012.24
2019-05-23T00:19:09.744Z,1012.24
2019-05-23T00:19:50.362Z,1012.28
2019-05-23T00:20:30.902Z,1012.33
2019-05-23T00:21:11.455Z,1012.31
2019-05-23T00:21:51.998Z,1012.29
2019-05-23T00:22:32.580Z,1012.27
2019-05-23T00:23:13.134Z,1012.29
2019-05-23T00:23:53.724Z,1012.29
2019-05-23T00:24:34.302Z,1012.26
2019-05-23T00:25:14.849Z,1012.28
2019-05-23T00:25:55.406Z,1012.29
2019-05-23T00:26:36.019Z,1012.3
2019-05-23T00:27:16.578Z,1012.27
2019-05-23T00:27:57.164Z,1012.32
2019-05-23T00:28:37.769Z,1012.31
2019-05-23T00:29:18.344Z,1012.28
2019-05-23T00:29:58.914Z,1012.27
2019-05-23T00:30:39.464Z,1012.29
2019-05-23T00:31:20.069Z,1012.3
2019-05-23T00:32:00.718Z,1012.3
2019-05-23T00:32:41.294Z,1012.3
2019-05-23T00:33:21.848Z,1012.27
2019-05-23T00:34:02.420Z,1012.25
2019-05-23T00:34:42.987Z,1012.23
2019-05-23T00:35:23.541Z,1012.27
2019-05-23T00:36:04.105Z,1012.25
2019-05-23T00:36:44.666Z,1012.27
2019-05-23T00:37:25.242Z,1012.29
2019-05-23T00:38:05.806Z,1012.25
2019-05-23T00:38:46.367Z,1012.27
2019-05-23T00:39:26.927Z,1012.24
2019-05-23T00:40:07.490Z,1012.27
2019-05-23T00:40:48.060Z,1012.29
2019-05-23T00:41:28.657Z,1012.29
2019-05-23T00:44:42.529Z,1012.29
2019-05-23T00:45:23.103Z,1012.3
2019-05-23T00:46:03.724Z,1012.32
2019-05-23T00:46:44.270Z,1012.31
2019-05-23T00:47:24.825Z,1012.27
2019-05-23T00:48:05.397Z,1012.26
2019-05-23T00:48:45.988Z,1012.29
2019-05-23T00:49:26.559Z,1012.31
2019-05-23T00:50:07.140Z,1012.28
2019-05-23T00:50:47.707Z,1012.28
2019-05-23T00:51:28.293Z,1012.29
2019-05-23T00:52:08.861Z,1012.3
2019-05-23T00:52:49.452Z,1012.34
2019-05-23T00:53:30.017Z,1012.34
2019-05-23T00:54:10.604Z,1012.33
2019-05-23T00:54:51.212Z,1012.32
2019-05-23T00:55:31.776Z,1012.29
2019-05-23T00:56:12.337Z,1012.33
2019-05-23T00:56:52.921Z,1012.37
2019-05-23T00:57:33.559Z,1012.31
2019-05-23T00:58:14.143Z,1012.36
2019-05-23T00:58:54.725Z,1012.33
2019-05-23T00:59:35.335Z,1012.32
2019-05-23T01:00:15.924Z,1012.32
2019-05-23T01:00:56.478Z,1012.33
2019-05-23T01:01:37.923Z,1012.33
2019-05-23T01:02:17.621Z,1012.37
2019-05-23T01:02:58.179Z,1012.38
2019-05-23T01:03:38.751Z,1012.34
2019-05-23T01:04:19.301Z,1012.38
2019-05-23T01:04:59.860Z,1012.38
2019-05-23T01:05:40.427Z,1012.38
2019-05-23T01:06:21.038Z,1012.35
2019-05-23T01:07:01.618Z,1012.42
2019-05-23T01:07:42.191Z,1012.4
2019-05-23T01:08:22.746Z,1012.35
2019-05-23T01:09:03.327Z,1012.36
2019-05-23T01:09:43.898Z,1012.37
2019-05-23T01:10:24.468Z,1012.41
2019-05-23T01:11:05.017Z,1012.42
2019-05-23T01:11:45.602Z,1012.42
2019-05-23T01:12:26.191Z,1012.44
2019-05-23T01:13:06.768Z,1012.38
2019-05-23T01:13:47.347Z,1012.46
2019-05-23T01:14:27.905Z,1012.46
2019-05-23T01:15:08.490Z,1012.43
2019-05-23T01:15:49.104Z,1012.52
2019-05-23T01:16:29.684Z,1012.44
2019-05-23T01:17:10.248Z,1012.45
2019-05-23T01:17:50.823Z,1012.51
2019-05-23T01:18:31.410Z,1012.48
2019-05-23T01:19:11.997Z,1012.47
2019-05-23T01:19:52.556Z,1012.49
2019-05-23T01:20:33.133Z,1012.47
2019-05-23T01:21:13.704Z,1012.46
2019-05-23T01:21:54.317Z,1012.47
2019-05-23T01:22:34.851Z,1012.46
2019-05-23T01:23:15.438Z,1012.48
2019-05-23T01:23:56.044Z,1012.52
2019-05-23T01:24:36.607Z,1012.52
2019-05-23T01:25:17.170Z,1012.44
2019-05-23T01:25:57.745Z,1012.52
2019-05-23T01:26:38.297Z,1012.48
2019-05-23T01:27:18.877Z,1012.49
2019-05-23T01:27:59.446Z,1012.53
2019-05-23T01:28:40.031Z,1012.48
2019-05-23T01:29:20.607Z,1012.49
2019-05-23T01:30:01.191Z,1012.47
2019-05-23T01:30:41.733Z,1012.49
2019-05-23T01:31:22.448Z,1012.48
2019-05-23T01:32:02.873Z,1012.5
2019-05-23T01:32:43.465Z,1012.47
2019-05-23T01:33:24.037Z,1012.45
2019-05-23T01:34:04.606Z,1012.48
2019-05-23T01:34:45.187Z,1012.46
2019-05-23T01:35:25.773Z,1012.51
2019-05-23T01:36:06.339Z,1012.45
2019-05-23T01:36:46.934Z,1012.47
2019-05-23T01:37:27.503Z,1012.5
2019-05-23T01:38:08.071Z,1012.47
2019-05-23T01:38:48.647Z,1012.5
2019-05-23T01:39:29.192Z,1012.5
2019-05-23T01:40:09.798Z,1012.5
2019-05-23T01:40:50.361Z,1012.49
2019-05-23T01:41:30.925Z,1012.5
2019-05-23T01:42:11.493Z,1012.5
2019-05-23T01:42:52.121Z,1012.49
2019-05-23T01:43:32.699Z,1012.52
2019-05-23T01:44:13.263Z,1012.54
2019-05-23T01:44:53.854Z,1012.5
2019-05-23T01:45:34.410Z,1012.56
2019-05-23T01:46:14.984Z,1012.54
2019-05-23T01:46:55.560Z,1012.52
2019-05-23T01:47:36.125Z,1012.57
2019-05-23T01:48:16.713Z,1012.58
2019-05-23T01:48:57.281Z,1012.57
2019-05-23T01:49:37.868Z,1012.53
2019-05-23T01:50:18.422Z,1012.57
2019-05-23T01:50:59.013Z,1012.58
2019-05-23T01:51:39.668Z,1012.59
2019-05-23T01:52:20.251Z,1012.56
2019-05-23T01:53:00.841Z,1012.59
2019-05-23T01:53:41.421Z,1012.59
2019-05-23T01:54:21.977Z,1012.58
2019-05-23T01:55:02.546Z,1012.57
2019-05-23T01:55:43.189Z,1012.57
2019-05-23T01:56:23.765Z,1012.6
2019-05-23T01:57:04.343Z,1012.56
2019-05-23T01:57:44.903Z,1012.62
2019-05-23T01:58:25.510Z,1012.63
2019-05-23T01:59:06.127Z,1012.63
2019-05-23T01:59:46.710Z,1012.66
2019-05-23T02:00:27.260Z,1012.65
2019-05-23T02:01:07.835Z,1012.67
2019-05-23T02:01:48.399Z,1012.67
2019-05-23T02:02:28.964Z,1012.66
2019-05-23T02:03:09.558Z,1012.66
2019-05-23T02:03:50.216Z,1012.66
2019-05-23T02:04:30.777Z,1012.64
2019-05-23T02:05:11.349Z,1012.69
2019-05-23T02:05:51.916Z,1012.67
2019-05-23T02:06:32.502Z,1012.68
2019-05-23T02:07:13.060Z,1012.68
2019-05-23T02:07:53.730Z,1012.69
2019-05-23T02:08:34.340Z,1012.72
2019-05-23T02:09:14.910Z,1012.67
2019-05-23T02:09:55.531Z,1012.71
2019-05-23T02:10:36.100Z,1012.69
2019-05-23T02:11:16.715Z,1012.7
2019-05-23T02:11:57.267Z,1012.72
2019-05-23T02:12:37.890Z,1012.74
2019-05-23T02:13:18.376Z,1012.72
2019-05-23T02:13:58.925Z,1012.74
2019-05-23T02:14:39.495Z,1012.68
2019-05-23T02:15:20.063Z,1012.73
2019-05-23T02:16:00.653Z,1012.69
2019-05-23T02:16:41.222Z,1012.72
2019-05-23T02:17:21.794Z,1012.71
2019-05-23T02:18:02.393Z,1012.75
2019-05-23T02:18:43.029Z,1012.73
2019-05-23T02:19:23.647Z,1012.74
2019-05-23T02:20:04.244Z,1012.72
2019-05-23T02:20:44.786Z,1012.69
2019-05-23T02:21:25.342Z,1012.73
2019-05-23T02:22:05.914Z,1012.75
2019-05-23T02:22:46.543Z,1012.76
2019-05-23T02:23:27.049Z,1012.76
2019-05-23T02:24:07.633Z,1012.75
2019-05-23T02:24:48.191Z,1012.73
2019-05-23T02:25:28.756Z,1012.73
2019-05-23T02:26:09.346Z,1012.73
2019-05-23T02:26:49.893Z,1012.73
2019-05-23T02:27:30.463Z,1012.72
2019-05-23T02:28:11.083Z,1012.72
2019-05-23T02:28:51.630Z,1012.73
2019-05-23T02:29:32.269Z,1012.72
2019-05-23T02:30:32.071Z,1012.74
2019-05-23T02:30:53.356Z,1012.72
2019-05-23T02:31:33.945Z,1012.7
2019-05-23T02:32:14.494Z,1012.73
2019-05-23T02:32:55.077Z,1012.71
2019-05-23T02:33:35.670Z,1012.67
2019-05-23T02:34:16.186Z,1012.69
2019-05-23T02:34:56.775Z,1012.66
2019-05-23T02:35:37.344Z,1012.66
2019-05-23T02:36:17.910Z,1012.67
2019-05-23T02:36:58.485Z,1012.69
2019-05-23T02:37:39.142Z,1012.71
2019-05-23T02:38:19.695Z,1012.7
2019-05-23T02:39:00.270Z,1012.68
2019-05-23T02:39:40.857Z,1012.72
2019-05-23T02:40:21.436Z,1012.71
2019-05-23T02:41:02.014Z,1012.7
2019-05-23T02:41:42.575Z,1012.7
2019-05-23T02:42:23.132Z,1012.65
2019-05-23T02:43:03.735Z,1012.68
2019-05-23T02:43:44.294Z,1012.63
2019-05-23T02:44:24.865Z,1012.69
2019-05-23T02:45:05.429Z,1012.67
2019-05-23T02:45:45.980Z,1012.67
2019-05-23T02:46:26.566Z,1012.67
2019-05-23T02:47:07.147Z,1012.63
2019-05-23T02:47:47.757Z,1012.64
2019-05-23T02:48:28.325Z,1012.62
2019-05-23T02:49:08.956Z,1012.61
2019-05-23T02:49:49.483Z,1012.67
2019-05-23T02:50:30.123Z,1012.63
2019-05-23T02:51:10.661Z,1012.62
2019-05-23T02:51:51.243Z,1012.65
2019-05-23T02:52:31.822Z,1012.65
2019-05-23T02:53:12.430Z,1012.67
2019-05-23T02:53:53.035Z,1012.67
2019-05-23T02:54:37.261Z,1012.67
2019-05-23T02:55:14.175Z,1012.7
2019-05-23T02:55:54.722Z,1012.68
2019-05-23T02:56:35.281Z,1012.65
2019-05-23T02:57:15.827Z,1012.72
2019-05-23T02:57:56.375Z,1012.66
2019-05-23T02:58:36.934Z,1012.69
2019-05-23T02:59:17.509Z,1012.72
2019-05-23T02:59:58.060Z,1012.72
2019-05-23T03:00:53.060Z,1012.7
2019-05-23T03:01:19.191Z,1012.73
2019-05-23T03:01:59.758Z,1012.69
2019-05-23T03:02:40.392Z,1012.72
2019-05-23T03:03:20.890Z,1012.74
2019-05-23T03:04:01.461Z,1012.73
2019-05-23T03:04:41.996Z,1012.73
2019-05-23T03:05:22.569Z,1012.74
2019-05-23T03:06:03.164Z,1012.73
2019-05-23T03:06:43.867Z,1012.77
2019-05-23T03:07:24.442Z,1012.71
2019-05-23T03:08:05.009Z,1012.77
2019-05-23T03:08:45.594Z,1012.73
2019-05-23T03:09:26.138Z,1012.75
2019-05-23T03:10:06.674Z,1012.78
2019-05-23T03:10:47.254Z,1012.74
2019-05-23T03:11:27.841Z,1012.79
2019-05-23T03:12:08.442Z,1012.73
2019-05-23T03:12:48.999Z,1012.72
2019-05-23T03:13:29.588Z,1012.72
2019-05-23T03:14:10.143Z,1012.73
2019-05-23T03:14:50.717Z,1012.71
2019-05-23T03:15:31.275Z,1012.74
2019-05-23T03:16:11.839Z,1012.74
2019-05-23T03:16:52.393Z,1012.74
2019-05-23T03:17:32.971Z,1012.75
2019-05-23T03:18:13.547Z,1012.74
2019-05-23T03:18:54.117Z,1012.74
2019-05-23T03:19:34.678Z,1012.73
2019-05-23T03:20:15.381Z,1012.74
2019-05-23T03:20:55.926Z,1012.73
2019-05-23T03:21:36.486Z,1012.74
2019-05-23T03:22:17.047Z,1012.78
2019-05-23T03:22:57.623Z,1012.77
2019-05-23T03:23:38.241Z,1012.77
2019-05-23T03:24:18.811Z,1012.8
2019-05-23T03:24:59.381Z,1012.8
2019-05-23T03:25:40.381Z,1012.79
2019-05-23T03:26:20.955Z,1012.79
2019-05-23T03:27:01.557Z,1012.8
2019-05-23T03:27:42.157Z,1012.81
2019-05-23T03:28:22.752Z,1012.78
2019-05-23T03:29:03.291Z,1012.78
2019-05-23T03:32:17.751Z,1012.79
2019-05-23T03:32:58.319Z,1012.79
2019-05-23T03:33:38.884Z,1012.81
2019-05-23T03:34:19.429Z,1012.81
2019-05-23T03:35:00.058Z,1012.83
2019-05-23T03:35:40.671Z,1012.84
2019-05-23T03:36:21.251Z,1012.83
2019-05-23T03:37:01.805Z,1012.84
2019-05-23T03:37:42.366Z,1012.86
2019-05-23T03:38:22.977Z,1012.85
2019-05-23T03:39:03.529Z,1012.86
2019-05-23T03:39:44.081Z,1012.86
2019-05-23T03:40:24.692Z,1012.82
2019-05-23T03:41:05.350Z,1012.85
2019-05-23T03:41:45.966Z,1012.86
2019-05-23T03:42:26.517Z,1012.84
2019-05-23T03:43:07.086Z,1012.85
2019-05-23T03:43:47.663Z,1012.86
2019-05-23T03:44:28.253Z,1012.86
2019-05-23T03:45:08.798Z,1012.84
2019-05-23T03:45:49.451Z,1012.86
2019-05-23T03:46:30.005Z,1012.84
2019-05-23T03:47:10.568Z,1012.83
2019-05-23T03:47:51.147Z,1012.86
2019-05-23T03:48:31.712Z,1012.84
2019-05-23T03:49:12.303Z,1012.87
2019-05-23T03:49:52.886Z,1012.85
2019-05-23T03:50:33.441Z,1012.84
2019-05-23T03:51:13.995Z,1012.85
2019-05-23T03:51:54.578Z,1012.8
2019-05-23T03:52:35.177Z,1012.84
2019-05-23T03:53:15.749Z,1012.79
2019-05-23T03:53:56.334Z,1012.84
2019-05-23T03:54:36.900Z,1012.87
2019-05-23T03:55:17.460Z,1012.9
2019-05-23T03:55:58.013Z,1012.86
2019-05-23T03:56:38.682Z,1012.86
2019-05-23T03:57:19.293Z,1012.93
2019-05-23T03:57:59.864Z,1012.93
2019-05-23T03:58:40.430Z,1012.94
2019-05-23T03:59:20.977Z,1012.91
2019-05-23T04:00:01.558Z,1012.9
2019-05-23T04:00:42.106Z,1012.91
2019-05-23T04:01:22.668Z,1012.92
2019-05-23T04:02:03.223Z,1012.94
2019-05-23T04:02:43.760Z,1012.92
2019-05-23T04:03:24.355Z,1012.92
2019-05-23T04:04:04.922Z,1012.94
2019-05-23T04:04:45.538Z,1012.9
2019-05-23T04:05:26.099Z,1012.94
2019-05-23T04:06:06.703Z,1012.95
2019-05-23T04:06:47.272Z,1012.96
2019-05-23T04:07:27.829Z,1012.98
2019-05-23T04:08:08.376Z,1013.01
2019-05-23T04:08:48.936Z,1012.97
2019-05-23T04:09:29.511Z,1012.98
2019-05-23T04:10:10.081Z,1013
2019-05-23T04:10:51.767Z,1013.04
2019-05-23T04:11:31.274Z,1013.04
2019-05-23T04:12:11.865Z,1013.04
2019-05-23T04:12:52.410Z,1013.03
2019-05-23T04:13:33.014Z,1013.03
2019-05-23T04:14:13.607Z,1013.06
2019-05-23T04:14:54.204Z,1013.05
2019-05-23T04:15:34.771Z,1013.01
2019-05-23T04:16:15.355Z,1013.1
2019-05-23T04:16:55.940Z,1013.07
2019-05-23T04:17:36.531Z,1013.01
2019-05-23T04:18:17.088Z,1013.07
2019-05-23T04:18:57.662Z,1013.11
2019-05-23T04:19:38.246Z,1013.1
2019-05-23T04:20:18.811Z,1013.08
2019-05-23T04:20:59.371Z,1013.1
2019-05-23T04:21:39.924Z,1013.11
2019-05-23T04:22:20.487Z,1013.1
2019-05-23T04:23:01.067Z,1013.1
2019-05-23T04:23:41.630Z,1013.17
2019-05-23T04:24:22.238Z,1013.11
2019-05-23T04:25:02.918Z,1013.13
2019-05-23T04:25:43.593Z,1013.11
2019-05-23T04:26:24.181Z,1013.12
2019-05-23T04:27:04.802Z,1013.09
2019-05-23T04:27:45.356Z,1013.07
2019-05-23T04:28:25.925Z,1013.11
2019-05-23T04:29:06.512Z,1013.08
2019-05-23T04:29:47.086Z,1013.11
2019-05-23T04:30:27.650Z,1013.11
2019-05-23T04:31:12.004Z,1013.09
2019-05-23T04:32:05.770Z,1013.11
2019-05-23T04:32:29.402Z,1013.1
2019-05-23T04:33:09.998Z,1013.17
2019-05-23T04:33:50.612Z,1013.16
2019-05-23T04:34:31.189Z,1013.16
2019-05-23T04:35:11.738Z,1013.19
2019-05-23T04:35:52.328Z,1013.21
2019-05-23T04:36:32.928Z,1013.22
2019-05-23T04:37:13.525Z,1013.22
2019-05-23T04:37:54.071Z,1013.2
2019-05-23T04:38:36.311Z,1013.23
2019-05-23T04:39:15.194Z,1013.22
2019-05-23T04:39:55.785Z,1013.23
2019-05-23T04:40:36.360Z,1013.25
2019-05-23T04:41:16.954Z,1013.21
2019-05-23T04:41:57.525Z,1013.23
2019-05-23T04:42:38.123Z,1013.25
2019-05-23T04:43:18.703Z,1013.26
2019-05-23T04:43:59.292Z,1013.21
2019-05-23T04:44:43.931Z,1013.27
2019-05-23T04:45:20.455Z,1013.3
2019-05-23T04:46:01.048Z,1013.3
2019-05-23T04:46:41.592Z,1013.3
2019-05-23T04:47:22.165Z,1013.33
2019-05-23T04:48:02.754Z,1013.29
2019-05-23T04:48:43.339Z,1013.34
2019-05-23T04:49:23.893Z,1013.32
2019-05-23T04:50:04.486Z,1013.29
2019-05-23T04:50:45.114Z,1013.34
2019-05-23T04:51:25.680Z,1013.32
2019-05-23T04:52:06.254Z,1013.32
2019-05-23T04:52:46.835Z,1013.33
2019-05-23T04:53:27.390Z,1013.3
2019-05-23T04:54:08.006Z,1013.36
2019-05-23T04:54:48.609Z,1013.3
2019-05-23T04:55:29.191Z,1013.3
2019-05-23T04:56:09.767Z,1013.29
2019-05-23T04:56:50.339Z,1013.3
2019-05-23T04:57:30.910Z,1013.28
2019-05-23T04:58:11.496Z,1013.34
2019-05-23T04:58:52.054Z,1013.31
2019-05-23T04:59:32.620Z,1013.27
2019-05-23T05:00:13.224Z,1013.28
2019-05-23T05:00:53.805Z,1013.31
2019-05-23T05:01:34.387Z,1013.28
2019-05-23T05:02:25.294Z,1013.3
2019-05-23T05:02:55.555Z,1013.27
2019-05-23T05:03:36.134Z,1013.32
2019-05-23T05:04:16.739Z,1013.3
2019-05-23T05:04:57.314Z,1013.33
2019-05-23T05:05:37.884Z,1013.31
2019-05-23T05:06:18.465Z,1013.34
2019-05-23T05:06:59.095Z,1013.36
2019-05-23T05:07:39.685Z,1013.34
2019-05-23T05:08:20.266Z,1013.31
2019-05-23T05:09:00.865Z,1013.37
2019-05-23T05:09:41.541Z,1013.4
2019-05-23T05:10:22.105Z,1013.36
2019-05-23T05:11:02.693Z,1013.32
2019-05-23T05:11:43.248Z,1013.37
2019-05-23T05:12:23.829Z,1013.34
2019-05-23T05:13:04.381Z,1013.36
2019-05-23T05:13:44.952Z,1013.4
2019-05-23T05:14:25.531Z,1013.38
2019-05-23T05:15:06.167Z,1013.38
2019-05-23T05:15:46.748Z,1013.37
2019-05-23T05:16:27.319Z,1013.4
2019-05-23T05:17:07.890Z,1013.36
2019-05-23T05:17:48.473Z,1013.43
2019-05-23T05:18:29.063Z,1013.39
2019-05-23T05:19:09.661Z,1013.4
2019-05-23T05:19:50.261Z,1013.43
2019-05-23T05:20:30.843Z,1013.43
2019-05-23T05:21:11.428Z,1013.45
2019-05-23T05:21:52.042Z,1013.45
2019-05-23T05:22:32.605Z,1013.43
2019-05-23T05:23:13.225Z,1013.42
2019-05-23T05:23:53.788Z,1013.46
2019-05-23T05:24:34.351Z,1013.46
2019-05-23T05:25:15.006Z,1013.43
2019-05-23T05:25:55.610Z,1013.39
2019-05-23T05:26:36.162Z,1013.46
2019-05-23T05:27:16.775Z,1013.49
2019-05-23T05:27:57.333Z,1013.61
2019-05-23T05:28:37.938Z,1013.68
2019-05-23T05:29:18.570Z,1013.75
2019-05-23T05:29:59.157Z,1013.78
2019-05-23T05:30:39.716Z,1013.8
2019-05-23T05:31:20.340Z,1013.8
2019-05-23T05:32:03.521Z,1013.91
2019-05-23T05:32:45.130Z,1013.96
2019-05-23T05:33:22.118Z,1013.88
2019-05-23T05:34:02.704Z,1013.9
2019-05-23T05:34:43.366Z,1013.92
2019-05-23T05:35:23.934Z,1013.98
2019-05-23T05:36:04.602Z,1013.99
2019-05-23T05:36:45.105Z,1014.05
2019-05-23T05:37:25.672Z,1014.06
2019-05-23T05:38:06.264Z,1014.08
2019-05-23T05:38:46.831Z,1014.08
2019-05-23T05:39:27.423Z,1014.09
2019-05-23T05:40:08.221Z,1014.13
2019-05-23T05:40:48.658Z,1014.14
2019-05-23T05:41:29.210Z,1014.18
2019-05-23T05:42:09.852Z,1014.22
2019-05-23T05:42:50.503Z,1014.25
2019-05-23T05:46:04.632Z,1014.34
2019-05-23T05:46:45.186Z,1014.42
2019-05-23T05:47:25.749Z,1014.42
2019-05-23T05:48:06.324Z,1014.48
2019-05-23T05:48:46.907Z,1014.53
2019-05-23T05:49:27.479Z,1014.53
2019-05-23T05:50:08.097Z,1014.48
2019-05-23T05:50:48.679Z,1014.59
2019-05-23T05:53:01.533Z,1014.78
2019-05-23T05:53:42.104Z,1014.89
2019-05-23T05:54:22.682Z,1015
2019-05-23T05:55:03.259Z,1015.06
2019-05-23T05:55:43.833Z,1015.13
2019-05-23T05:56:24.410Z,1015.23
2019-05-23T05:57:04.977Z,1015.34
2019-05-23T05:57:45.536Z,1015.37
2019-05-23T05:58:26.113Z,1015.43
2019-05-23T05:59:06.708Z,1015.43
2019-05-23T05:59:47.282Z,1015.42
2019-05-23T06:00:27.965Z,1015.47
2019-05-23T06:01:08.529Z,1015.53
2019-05-23T06:01:49.085Z,1015.5
2019-05-23T06:02:29.660Z,1015.39
2019-05-23T06:03:10.245Z,1015.42
2019-05-23T06:03:50.805Z,1015.37
2019-05-23T06:04:31.365Z,1015.24
2019-05-23T06:05:11.937Z,1015.2
2019-05-23T06:05:52.514Z,1015.15
2019-05-23T06:06:33.095Z,1014.92
2019-05-23T06:07:13.687Z,1014.91
2019-05-23T06:07:54.275Z,1014.92
2019-05-23T06:08:34.865Z,1014.91
2019-05-23T06:09:15.440Z,1014.85
2019-05-23T06:09:56.001Z,1014.85
2019-05-23T06:10:36.690Z,1014.84
2019-05-23T06:11:17.172Z,1014.77
2019-05-23T06:11:57.760Z,1014.72
2019-05-23T06:12:38.332Z,1014.67
2019-05-23T06:13:18.909Z,1014.59
2019-05-23T06:13:59.489Z,1014.5
2019-05-23T06:14:40.070Z,1014.42
2019-05-23T06:15:20.694Z,1014.4
2019-05-23T06:16:01.280Z,1014.34
2019-05-23T06:16:41.838Z,1014.42
2019-05-23T06:17:22.436Z,1014.41
2019-05-23T06:18:03.143Z,1014.44
2019-05-23T06:18:43.595Z,1014.45
2019-05-23T06:19:24.165Z,1014.48
2019-05-23T06:20:04.802Z,1014.46
2019-05-23T06:20:45.428Z,1014.47
2019-05-23T06:21:25.990Z,1014.48
2019-05-23T06:22:06.583Z,1014.46
2019-05-23T06:22:47.145Z,1014.44
2019-05-23T06:23:27.722Z,1014.45
2019-05-23T06:24:08.304Z,1014.43
2019-05-23T06:24:53.580Z,1014.41
2019-05-23T06:25:29.472Z,1014.42
2019-05-23T06:26:10.025Z,1014.39
2019-05-23T06:26:50.604Z,1014.45
2019-05-23T06:27:31.181Z,1014.42
2019-05-23T06:28:11.751Z,1014.47
2019-05-23T06:28:52.334Z,1014.43
2019-05-23T06:29:32.922Z,1014.45
2019-05-23T06:30:13.498Z,1014.44
2019-05-23T06:30:54.071Z,1014.51
2019-05-23T06:31:34.649Z,1014.54
2019-05-23T06:32:15.283Z,1014.59
2019-05-23T06:32:55.881Z,1014.55
2019-05-23T06:33:36.634Z,1014.52
2019-05-23T06:34:17.209Z,1014.5
2019-05-23T06:34:57.843Z,1014.54
2019-05-23T06:35:38.417Z,1014.66
2019-05-23T06:36:18.994Z,1014.71
2019-05-23T06:36:59.582Z,1014.62
2019-05-23T06:37:40.170Z,1014.41
2019-05-23T06:38:20.733Z,1014.31
2019-05-23T06:39:01.328Z,1014.22
2019-05-23T06:39:41.899Z,1014.23
2019-05-23T06:40:22.466Z,1014.2
2019-05-23T06:41:03.056Z,1014.22
2019-05-23T06:41:43.630Z,1014.2
2019-05-23T06:42:24.270Z,1014.25
2019-05-23T06:43:04.878Z,1014.14
2019-05-23T06:43:45.425Z,1014.18
2019-05-23T06:44:25.986Z,1014.2
2019-05-23T06:45:06.563Z,1014.24
2019-05-23T06:45:47.132Z,1014.22
2019-05-23T06:46:27.709Z,1014.23
2019-05-23T06:47:08.294Z,1014.24
2019-05-23T06:47:48.871Z,1014.2
2019-05-23T06:48:29.472Z,1014.26
2019-05-23T06:49:10.059Z,1014.27
2019-05-23T06:49:50.688Z,1014.27
2019-05-23T06:50:31.243Z,1014.29
2019-05-23T06:51:11.854Z,1014.3
2019-05-23T06:51:52.568Z,1014.29
2019-05-23T06:52:33.172Z,1014.29
2019-05-23T06:53:13.750Z,1014.29
2019-05-23T06:53:54.350Z,1014.25
2019-05-23T06:54:34.974Z,1014.24
2019-05-23T06:55:15.529Z,1014.26
2019-05-23T06:55:56.109Z,1014.31
2019-05-23T06:56:36.749Z,1014.3
2019-05-23T06:57:17.255Z,1014.29
2019-05-23T06:57:57.852Z,1014.27
2019-05-23T06:58:38.433Z,1014.24
2019-05-23T06:59:19.024Z,1014.27
2019-05-23T06:59:59.605Z,1014.26
2019-05-23T07:00:40.247Z,1014.25
2019-05-23T07:01:20.883Z,1014.21
2019-05-23T07:02:01.402Z,1014.22
2019-05-23T07:02:42.023Z,1014.3
2019-05-23T07:03:38.462Z,1014.32
2019-05-23T07:04:03.182Z,1014.3
2019-05-23T07:04:43.812Z,1014.32
2019-05-23T07:05:24.365Z,1014.3
2019-05-23T07:06:04.933Z,1014.31
2019-05-23T07:06:45.520Z,1014.34
2019-05-23T07:07:26.112Z,1014.31
2019-05-23T07:08:06.677Z,1014.31
2019-05-23T07:08:47.251Z,1014.3
2019-05-23T07:09:27.888Z,1014.3
2019-05-23T07:10:08.470Z,1014.34
2019-05-23T07:10:49.099Z,1014.34
2019-05-23T07:11:29.667Z,1014.34
2019-05-23T07:12:10.273Z,1014.34
2019-05-23T07:12:50.840Z,1014.36
2019-05-23T07:13:31.395Z,1014.36
2019-05-23T07:14:12.030Z,1014.31
2019-05-23T07:14:52.602Z,1014.3
2019-05-23T07:15:33.190Z,1014.36
2019-05-23T07:16:13.797Z,1014.35
2019-05-23T07:16:54.373Z,1014.34
2019-05-23T07:17:34.948Z,1014.35
2019-05-23T07:18:15.565Z,1014.36
2019-05-23T07:18:56.225Z,1014.29
2019-05-23T07:19:36.796Z,1014.39
2019-05-23T07:20:17.370Z,1014.37
2019-05-23T07:20:57.942Z,1014.17
2019-05-23T07:21:38.528Z,1014.37
2019-05-23T07:22:19.716Z,1014.36
2019-05-23T07:22:59.693Z,1014.35
2019-05-23T07:23:40.267Z,1014.36
2019-05-23T07:24:20.831Z,1014.38
2019-05-23T07:25:01.421Z,1014.4
2019-05-23T07:25:42.276Z,1014.34
2019-05-23T07:26:22.933Z,1014.28
2019-05-23T07:27:03.501Z,1014.24
2019-05-23T07:27:44.070Z,1014.23
2019-05-23T07:28:24.668Z,1014.31
2019-05-23T07:29:05.233Z,1014.22
2019-05-23T07:29:45.826Z,1014.27
2019-05-23T07:30:26.394Z,1014.39
2019-05-23T07:31:06.976Z,1014.43
2019-05-23T07:31:47.543Z,1014.4
2019-05-23T07:32:28.125Z,1014.42
2019-05-23T07:33:08.680Z,1014.37
2019-05-23T07:34:00.799Z,1014.41
2019-05-23T07:34:29.867Z,1014.39
2019-05-23T07:35:10.462Z,1014.4
2019-05-23T07:35:51.096Z,1014.43
2019-05-23T07:36:31.631Z,1014.41
2019-05-23T07:37:12.200Z,1014.39
2019-05-23T07:37:52.781Z,1014.37
2019-05-23T07:38:33.352Z,1014.4
2019-05-23T07:39:13.934Z,1014.4
2019-05-23T07:39:54.503Z,1014.44
2019-05-23T07:40:35.101Z,1014.34
2019-05-23T07:41:15.691Z,1014.41
2019-05-23T07:41:56.264Z,1014.41
2019-05-23T07:42:36.843Z,1014.44
2019-05-23T07:43:17.418Z,1014.46
2019-05-23T07:43:58.013Z,1014.48
2019-05-23T07:44:47.746Z,1014.38
2019-05-23T07:45:19.222Z,1014.45
2019-05-23T07:45:59.880Z,1014.41
2019-05-23T07:46:40.473Z,1014.4
2019-05-23T07:47:21.039Z,1014.38
2019-05-23T07:48:01.648Z,1014.39
2019-05-23T07:48:42.289Z,1014.25
2019-05-23T07:49:22.882Z,1014.32
2019-05-23T07:50:03.443Z,1014.27
2019-05-23T07:50:44.038Z,1014.31
2019-05-23T07:51:24.619Z,1014.26
2019-05-23T07:52:05.174Z,1014.22
2019-05-23T07:52:45.770Z,1014.35
2019-05-23T07:53:26.325Z,1014.35
2019-05-23T07:54:06.944Z,1014.33
2019-05-23T07:54:47.529Z,1014.31
2019-05-23T07:55:28.090Z,1014.32
2019-05-23T07:56:08.666Z,1014.32
2019-05-23T07:56:49.231Z,1014.32
2019-05-23T07:57:29.846Z,1014.28
2019-05-23T07:58:13.528Z,1014.27
2019-05-23T07:58:51.001Z,1014.2
2019-05-23T07:59:31.576Z,1014.22
2019-05-23T08:00:12.164Z,1014.24
2019-05-23T08:00:52.735Z,1014.25
2019-05-23T08:01:33.311Z,1014.27
2019-05-23T08:02:13.904Z,1014.3
2019-05-23T08:02:54.544Z,1014.28
2019-05-23T08:03:35.167Z,1014.29
2019-05-23T08:04:21.615Z,1014.31
2019-05-23T08:04:56.378Z,1014.27
2019-05-23T08:05:36.970Z,1014.22
2019-05-23T08:06:17.553Z,1014.24
2019-05-23T08:06:58.145Z,1014.2
2019-05-23T08:07:38.697Z,1014.2
2019-05-23T08:08:19.274Z,1014.28
2019-05-23T08:08:59.869Z,1014.24
2019-05-23T08:09:40.432Z,1014.22
2019-05-23T08:10:32.946Z,1014.2
2019-05-23T08:11:01.592Z,1014.2
2019-05-23T08:11:42.156Z,1014.21
2019-05-23T08:12:22.749Z,1014.17
2019-05-23T08:13:03.462Z,1014.21
2019-05-23T08:13:43.943Z,1014.2
2019-05-23T08:14:24.501Z,1014.21
2019-05-23T08:15:05.070Z,1014.19
2019-05-23T08:15:45.677Z,1014.18
2019-05-23T08:16:26.256Z,1014.19
2019-05-23T08:17:06.848Z,1014.21
2019-05-23T08:17:47.396Z,1014.14
2019-05-23T08:18:27.989Z,1014.19
2019-05-23T08:19:08.575Z,1014.15
2019-05-23T08:19:50.463Z,1014.15
2019-05-23T08:20:29.702Z,1014.17
2019-05-23T08:21:10.292Z,1014.24
2019-05-23T08:21:50.844Z,1014.18